Time;durP1;ratioP1;P1;durP2;ratioP2;P2;SDS_P1;SDS_P2;PMS_P1;PMS_P2;Temp;Humidity;BMP_temperature;BMP_pressure;BME280_temperature;BME280_humidity;BME280_pressure;Samples;Min_cycle;Max_cycle;Signal;HPM_P1;HPM_P2
2024/02/20 00:02:00;;;;;;;19.13;5.55;;;;;;;8.02;100.00;102739.56;5286352;28;20728;-75
2024/02/20 00:04:32;;;;;;;16.30;4.40;;;;;;;8.04;100.00;102736.91;5283522;28;20024;-75
2024/02/20 00:07:04;;;;;;;23.08;5.22;;;;;;;7.96;100.00;102733.81;5286016;28;20036;-75
2024/02/20 00:09:36;;;;;;;23.75;5.20;;;;;;;7.95;100.00;102732.09;5282459;28;20035;-75
2024/02/20 00:12:07;;;;;;;16.55;4.68;;;;;;;7.91;100.00;102733.13;5285765;28;20036;-75
2024/02/20 00:14:39;;;;;;;21.40;4.85;;;;;;;7.92;100.00;102725.25;5286747;28;20044;-76
2024/02/20 00:17:12;;;;;;;21.90;4.97;;;;;;;7.95;100.00;102726.88;5283800;28;20032;-75
2024/02/20 00:19:43;;;;;;;17.70;5.53;;;;;;;7.93;100.00;102729.56;5285505;28;20847;-75
2024/02/20 00:22:15;;;;;;;14.32;4.85;;;;;;;7.91;100.00;102733.97;5285337;28;20038;-75
2024/02/20 00:24:48;;;;;;;17.60;5.22;;;;;;;7.91;100.00;102731.38;5268179;28;20027;-75
2024/02/20 00:27:19;;;;;;;18.63;4.85;;;;;;;7.90;100.00;102731.44;5282536;28;20435;-75
2024/02/20 00:29:53;;;;;;;19.58;4.90;;;;;;;7.90;100.00;102736.66;5283610;28;20034;-75
2024/02/20 00:32:24;;;;;;;;;;;;;;;8.55;100.00;102738.13;5287847;28;20037;-75
2024/02/20 00:34:56;;;;;;;21.67;5.38;;;;;;;7.98;100.00;102740.63;5286058;28;19928;-75
2024/02/20 00:37:29;;;;;;;20.50;5.68;;;;;;;7.92;100.00;102740.91;5284578;28;20551;-75
2024/02/20 00:40:03;;;;;;;16.58;5.10;;;;;;;7.93;100.00;102741.75;5286512;28;20043;-74
2024/02/20 00:42:35;;;;;;;14.63;4.05;;;;;;;7.89;100.00;102742.81;5285562;28;20035;-75
2024/02/20 00:45:08;;;;;;;19.92;4.65;;;;;;;7.87;100.00;102739.41;5284827;28;20576;-75
2024/02/20 00:47:39;;;;;;;25.00;4.60;;;;;;;7.89;100.00;102745.41;5285803;28;20040;-75
2024/02/20 00:50:11;;;;;;;18.27;4.60;;;;;;;7.87;100.00;102745.47;5279710;28;20522;-75
2024/02/20 00:52:43;;;;;;;17.08;4.43;;;;;;;7.84;100.00;102749.97;5281816;28;20035;-75
2024/02/20 00:55:15;;;;;;;18.70;5.50;;;;;;;7.85;100.00;102749.91;5284541;28;20042;-78
2024/02/20 00:57:47;;;;;;;23.48;4.90;;;;;;;7.86;100.00;102750.75;5285594;28;20044;-75
2024/02/20 01:00:19;;;;;;;26.92;5.03;;;;;;;7.81;100.00;102748.34;5283782;28;20036;-75
2024/02/20 01:02:51;;;;;;;18.67;5.07;;;;;;;7.83;100.00;102756.09;5284629;28;20028;-76
2024/02/20 01:05:23;;;;;;;15.27;4.47;;;;;;;7.82;100.00;102757.03;5291928;28;20031;-75
2024/02/20 01:07:57;;;;;;;19.95;4.20;;;;;;;7.82;100.00;102762.25;5289314;28;20047;-76
2024/02/20 01:10:28;;;;;;;19.73;4.82;;;;;;;7.85;100.00;102759.50;5291664;28;20385;-77
2024/02/20 01:13:00;;;;;;;21.58;5.38;;;;;;;7.50;100.00;102762.69;5291349;28;20035;-76
2024/02/20 01:15:32;;;;;;;21.45;5.00;;;;;;;7.46;100.00;102760.25;5292175;28;20036;-77
2024/02/20 01:18:04;;;;;;;17.95;5.47;;;;;;;7.47;100.00;102759.34;5289953;28;20046;-78
2024/02/20 01:20:36;;;;;;;20.05;4.93;;;;;;;7.46;100.00;102755.91;5291349;28;20225;-77
2024/02/20 01:23:08;;;;;;;21.00;5.72;;;;;;;7.47;100.00;102759.34;5289524;28;20389;-75
2024/02/20 01:25:41;;;;;;;18.10;4.22;;;;;;;7.44;100.00;102762.94;5288228;28;20442;-75
2024/02/20 01:28:13;;;;;;;20.00;5.50;;;;;;;7.40;100.00;102737.88;5271510;28;20043;-75
2024/02/20 01:30:46;;;;;;;17.00;4.93;;;;;;;7.43;100.00;102748.19;5290872;28;20043;-75
2024/02/20 01:33:18;;;;;;;21.35;5.63;;;;;;;7.47;100.00;102747.16;5286113;28;20035;-75
2024/02/20 01:35:50;;;;;;;19.63;5.53;;;;;;;7.50;100.00;102749.66;5288501;28;20031;-75
2024/02/20 01:38:23;;;;;;;19.05;4.68;;;;;;;7.52;100.00;102753.03;5291930;28;20020;-75
2024/02/20 01:40:55;;;;;;;15.20;5.05;;;;;;;7.51;100.00;102738.28;5288725;28;20031;-76
2024/02/20 01:43:28;;;;;;;20.75;5.35;;;;;;;7.53;100.00;102746.03;5290628;28;20405;-76
2024/02/20 01:46:00;;;;;;;;;;;;;;;8.09;100.00;102749.75;5293826;28;20043;-76
2024/02/20 01:48:32;;;;;;;18.17;4.30;;;;;;;7.64;100.00;102748.22;5289545;28;20297;-77
2024/02/20 01:51:04;;;;;;;14.95;5.22;;;;;;;7.61;100.00;102758.75;5290578;28;20078;-75
2024/02/20 01:53:36;;;;;;;21.02;5.30;;;;;;;7.61;100.00;102754.38;5292370;28;20497;-77
2024/02/20 01:56:13;;;;;;;19.15;4.80;;;;;;;7.54;100.00;102735.56;5292536;28;20050;-75
2024/02/20 01:58:45;;;;;;;15.52;4.90;;;;;;;7.65;100.00;102749.91;5288789;28;20032;-78
2024/02/20 02:01:18;;;;;;;15.57;4.63;;;;;;;7.70;100.00;102758.41;5291399;28;20405;-75
2024/02/20 02:03:53;;;;;;;19.10;4.35;;;;;;;7.80;100.00;102754.47;5290556;28;20035;-75
2024/02/20 02:06:29;;;;;;;18.83;5.13;;;;;;;7.75;100.00;102751.22;5291803;28;21103;-78
2024/02/20 02:09:01;;;;;;;20.08;4.75;;;;;;;7.78;100.00;102757.16;5291958;28;20042;-76
2024/02/20 02:11:39;;;;;;;19.25;4.68;;;;;;;7.80;100.00;102757.94;5294188;28;20477;-76
2024/02/20 02:14:11;;;;;;;16.50;4.60;;;;;;;7.84;100.00;102757.78;5289128;28;20501;-76
2024/02/20 02:16:46;;;;;;;19.85;4.95;;;;;;;7.93;100.00;102750.44;5288122;28;20082;-75
2024/02/20 02:19:18;;;;;;;18.02;4.55;;;;;;;7.89;100.00;102754.09;5259806;28;20032;-76
2024/02/20 02:21:50;;;;;;;15.27;3.97;;;;;;;7.85;100.00;102743.84;5292557;28;20638;-77
2024/02/20 02:24:21;;;;;;;20.55;4.50;;;;;;;7.90;100.00;102755.78;5291550;28;20016;-75
2024/02/20 02:26:53;;;;;;;20.38;5.63;;;;;;;7.90;100.00;102749.72;5288511;28;20039;-78
2024/02/20 02:29:25;;;;;;;17.70;4.38;;;;;;;7.93;100.00;102760.88;5287085;28;20040;-75
2024/02/20 02:31:58;;;;;;;19.23;4.78;;;;;;;7.94;100.00;102762.56;5287490;28;20028;-78
2024/02/20 02:34:30;;;;;;;22.03;5.70;;;;;;;7.98;100.00;102758.06;5287377;28;20039;-76
2024/02/20 02:37:02;;;;;;;19.65;4.53;;;;;;;7.87;100.00;102748.06;5287166;28;20249;-75
2024/02/20 02:39:33;;;;;;;15.82;4.70;;;;;;;7.91;100.00;102762.69;5281559;28;20033;-77
2024/02/20 02:42:06;;;;;;;17.38;4.63;;;;;;;7.92;100.00;102760.94;5280325;28;20040;-76
2024/02/20 02:44:38;;;;;;;20.60;5.17;;;;;;;7.93;100.00;102763.47;5285994;28;20099;-75
2024/02/20 02:47:09;;;;;;;16.90;4.38;;;;;;;7.90;100.00;102765.38;5281736;28;20044;-75
2024/02/20 02:49:41;;;;;;;19.70;4.70;;;;;;;7.91;100.00;102762.69;5285186;28;20036;-75
2024/02/20 02:52:15;;;;;;;15.30;4.18;;;;;;;7.88;100.00;102765.44;5288736;28;20035;-75
2024/02/20 02:54:47;;;;;;;;;;;;;;;8.43;100.00;102765.66;5286480;28;20506;-75
2024/02/20 02:57:19;;;;;;;18.98;4.97;;;;;;;7.93;100.00;102763.47;5288746;28;19927;-75
2024/02/20 02:59:51;;;;;;;21.25;5.43;;;;;;;7.90;100.00;102767.97;5270146;28;20417;-76
2024/02/20 03:02:24;;;;;;;14.73;4.10;;;;;;;7.93;100.00;102771.31;5287249;28;20031;-75
2024/02/20 03:04:57;;;;;;;;;;;;;;;8.46;100.00;102767.28;5286776;28;20024;-76
2024/02/20 03:07:29;;;;;;;18.50;4.28;;;;;;;7.93;100.00;102771.31;5287980;28;20309;-76
2024/02/20 03:10:01;;;;;;;16.88;5.13;;;;;;;7.88;100.00;102769.78;5268186;28;20048;-77
2024/02/20 03:12:33;;;;;;;18.85;4.88;;;;;;;7.90;100.00;102771.44;5289495;28;20035;-76
2024/02/20 03:15:05;;;;;;;19.38;5.53;;;;;;;7.87;100.00;102765.50;5283906;28;20032;-76
2024/02/20 03:17:43;;;;;;;18.27;4.88;;;;;;;7.86;100.00;102759.44;5288087;28;20044;-76
2024/02/20 03:20:15;;;;;;;14.93;4.10;;;;;;;7.84;100.00;102756.06;5283978;28;20032;-76
2024/02/20 03:22:47;;;;;;;23.67;5.10;;;;;;;7.81;100.00;102753.56;5285566;28;20051;-76
2024/02/20 03:25:19;;;;;;;18.30;4.25;;;;;;;7.84;100.00;102760.41;5287198;28;20031;-76
2024/02/20 03:27:51;;;;;;;18.02;5.05;;;;;;;7.85;100.00;102752.53;5285649;28;20394;-79
2024/02/20 03:30:23;;;;;;;17.13;4.80;;;;;;;7.83;100.00;102746.50;5286520;28;20028;-76
2024/02/20 03:32:55;;;;;;;16.13;4.93;;;;;;;7.85;100.00;102756.91;5287520;28;20039;-76
2024/02/20 03:35:27;;;;;;;21.35;4.55;;;;;;;7.84;100.00;102761.28;5285905;28;20036;-78
2024/02/20 03:37:59;;;;;;;21.67;4.75;;;;;;;7.87;100.00;102760.28;5284670;28;20046;-77
2024/02/20 03:40:31;;;;;;;12.18;4.43;;;;;;;7.85;100.00;102762.13;5288154;28;20040;-76
2024/02/20 03:43:03;;;;;;;15.40;4.40;;;;;;;7.86;100.00;102759.44;5287553;28;20539;-76
2024/02/20 03:45:35;;;;;;;19.55;5.80;;;;;;;7.88;100.00;102754.13;5284801;28;20389;-76
2024/02/20 03:48:07;;;;;;;16.73;4.82;;;;;;;7.86;100.00;102759.44;5285286;28;20134;-77
2024/02/20 03:50:39;;;;;;;14.85;4.95;;;;;;;7.86;100.00;102761.19;5287652;28;20031;-76
2024/02/20 03:53:11;;;;;;;17.30;5.40;;;;;;;7.84;100.00;102756.06;5284688;28;20031;-76
2024/02/20 03:55:43;;;;;;;17.55;4.85;;;;;;;7.75;100.00;102741.63;5286489;28;20052;-76
2024/02/20 03:58:15;;;;;;;16.40;4.22;;;;;;;7.81;100.00;102750.97;5287048;28;20036;-76
2024/02/20 04:00:47;;;;;;;13.20;4.78;;;;;;;7.80;100.00;102750.13;5286699;28;20038;-76
2024/02/20 04:03:18;;;;;;;17.02;5.30;;;;;;;7.82;100.00;102746.59;5286729;28;20032;-76
2024/02/20 04:05:50;;;;;;;23.63;6.35;;;;;;;7.82;100.00;102739.59;5286945;28;20032;-76
2024/02/20 04:08:22;;;;;;;15.10;4.95;;;;;;;7.81;100.00;102743.13;5285311;28;20035;-76
2024/02/20 04:10:55;;;;;;;13.95;4.38;;;;;;;7.84;100.00;102729.97;5285782;28;20070;-77
2024/02/20 04:13:27;;;;;;;19.10;4.60;;;;;;;7.86;100.00;102724.66;5284129;28;20028;-76
2024/02/20 04:15:59;;;;;;;17.30;4.50;;;;;;;7.82;100.00;102736.16;5286255;28;20032;-76
2024/02/20 04:18:31;;;;;;;15.23;4.75;;;;;;;7.83;100.00;102730.84;5285633;28;20036;-76
2024/02/20 04:21:04;;;;;;;20.95;5.93;;;;;;;7.83;100.00;102736.06;5287968;28;20032;-77
2024/02/20 04:23:36;;;;;;;13.30;4.38;;;;;;;7.86;100.00;102725.50;5285836;28;20395;-76
2024/02/20 04:26:08;;;;;;;18.15;5.55;;;;;;;7.78;100.00;102727.59;5284064;28;20133;-79
2024/02/20 04:28:40;;;;;;;20.05;4.93;;;;;;;7.82;100.00;102736.16;5287097;28;20032;-78
2024/02/20 04:31:12;;;;;;;16.83;4.30;;;;;;;7.79;100.00;102730.13;5286548;28;20389;-76
2024/02/20 04:33:44;;;;;;;22.52;5.63;;;;;;;7.80;100.00;102726.63;5285556;28;20040;-76
2024/02/20 04:36:15;;;;;;;14.38;4.88;;;;;;;7.83;100.00;102724.78;5286810;28;20035;-76
2024/02/20 04:38:49;;;;;;;17.15;5.60;;;;;;;7.84;100.00;102729.97;5285645;28;20031;-76
2024/02/20 04:41:27;;;;;;;19.50;5.20;;;;;;;7.93;100.00;102724.34;5286674;28;20032;-79
2024/02/20 04:43:59;;;;;;;15.77;4.53;;;;;;;7.86;100.00;102735.09;5284841;28;20424;-76
2024/02/20 04:46:31;;;;;;;13.27;4.70;;;;;;;7.90;100.00;102728.84;5286996;28;20047;-78
2024/02/20 04:49:03;;;;;;;22.30;6.70;;;;;;;7.88;100.00;102728.03;5287442;28;20028;-76
2024/02/20 04:51:36;;;;;;;13.60;5.00;;;;;;;7.86;100.00;102728.13;5283647;28;20047;-76
2024/02/20 04:54:09;;;;;;;17.52;4.65;;;;;;;7.90;100.00;102721.84;5285336;28;20028;-77
2024/02/20 04:56:40;;;;;;;18.75;5.30;;;;;;;7.92;100.00;102727.88;5283149;28;20044;-76
2024/02/20 04:59:13;;;;;;;18.98;5.70;;;;;;;7.89;100.00;102733.22;5284980;28;20032;-78
2024/02/20 05:01:47;;;;;;;17.17;5.30;;;;;;;7.93;100.00;102734.78;5286632;28;20035;-76
2024/02/20 05:04:18;;;;;;;14.13;4.53;;;;;;;7.90;100.00;102734.06;5286181;28;20472;-76
2024/02/20 05:06:50;;;;;;;17.33;4.60;;;;;;;7.95;100.00;102732.94;5287496;28;20032;-77
2024/02/20 05:09:22;;;;;;;16.73;5.20;;;;;;;7.96;100.00;102726.81;5286579;28;20370;-77
2024/02/20 05:11:54;;;;;;;15.80;4.80;;;;;;;7.94;100.00;102731.25;5285507;28;20441;-76
2024/02/20 05:14:26;;;;;;;14.57;5.10;;;;;;;7.96;100.00;102724.19;5286728;28;20078;-76
2024/02/20 05:16:58;;;;;;;14.43;5.32;;;;;;;7.96;100.00;102731.19;5283130;28;20037;-76
2024/02/20 05:19:30;;;;;;;21.40;5.80;;;;;;;7.96;100.00;102732.03;5285877;28;20039;-78
2024/02/20 05:22:02;;;;;;;21.58;4.88;;;;;;;7.95;100.00;102738.16;5287979;28;20217;-76
2024/02/20 05:24:37;;;;;;;15.90;5.45;;;;;;;7.98;100.00;102734.56;5286260;28;20098;-78
2024/02/20 05:27:08;;;;;;;16.33;5.05;;;;;;;7.99;100.00;102731.03;5286235;28;20032;-76
2024/02/20 05:29:40;;;;;;;18.48;5.72;;;;;;;8.00;100.00;102737.97;5285919;28;20111;-77
2024/02/20 05:32:12;;;;;;;17.27;5.38;;;;;;;7.96;100.00;102734.66;5285025;28;20043;-75
2024/02/20 05:34:44;;;;;;;15.68;5.47;;;;;;;7.98;100.00;102738.03;5284551;28;20044;-76
2024/02/20 05:37:16;;;;;;;18.80;6.30;;;;;;;7.94;100.00;102726.03;5287692;28;20027;-76
2024/02/20 05:39:48;;;;;;;12.05;4.60;;;;;;;7.95;100.00;102739.91;5286288;28;20032;-75
2024/02/20 05:42:20;;;;;;;15.40;5.43;;;;;;;7.96;100.00;102746.84;5284769;28;20393;-76
2024/02/20 05:44:52;;;;;;;19.60;7.43;;;;;;;7.95;100.00;102745.97;5283568;28;20035;-77
2024/02/20 05:47:24;;;;;;;17.60;5.68;;;;;;;7.98;100.00;102745.00;5285641;28;20024;-78
2024/02/20 05:49:56;;;;;;;16.02;5.38;;;;;;;7.83;100.00;102727.41;5283600;28;20032;-78
2024/02/20 05:52:28;;;;;;;13.77;5.28;;;;;;;7.92;100.00;102742.69;5289791;28;20032;-76
2024/02/20 05:55:00;;;;;;;17.92;6.03;;;;;;;7.93;100.00;102742.59;5288002;28;20679;-79
2024/02/20 05:57:32;;;;;;;20.63;7.53;;;;;;;7.93;100.00;102733.94;5289208;28;20054;-76
2024/02/20 06:00:04;;;;;;;19.70;6.57;;;;;;;7.90;100.00;102734.06;5284708;28;20398;-78
2024/02/20 06:02:36;;;;;;;21.40;7.07;;;;;;;7.94;100.00;102736.47;5282611;28;20036;-77
2024/02/20 06:05:08;;;;;;;22.40;6.45;;;;;;;7.91;100.00;102723.53;5288333;28;20650;-76
2024/02/20 06:07:41;;;;;;;20.67;7.35;;;;;;;7.92;100.00;102727.88;5289698;28;20039;-78
2024/02/20 06:10:13;;;;;;;20.38;6.43;;;;;;;7.95;100.00;102726.88;5287027;28;20028;-77
2024/02/20 06:12:45;;;;;;;16.63;6.93;;;;;;;7.96;100.00;102734.66;5288069;28;20044;-76
2024/02/20 06:15:17;;;;;;;22.85;7.95;;;;;;;7.94;100.00;102735.63;5287181;28;20036;-76
2024/02/20 06:17:49;;;;;;;17.20;6.45;;;;;;;7.93;100.00;102732.16;5289375;28;20512;-77
2024/02/20 06:20:21;;;;;;;17.48;7.45;;;;;;;7.93;100.00;102729.56;5287574;28;20266;-77
2024/02/20 06:22:53;;;;;;;19.45;6.60;;;;;;;7.91;100.00;102731.38;5284863;28;20038;-78
2024/02/20 06:25:28;;;;;;;18.33;6.18;;;;;;;7.93;100.00;102737.38;5284436;28;20040;-76
2024/02/20 06:28:00;;;;;;;23.23;7.75;;;;;;;7.92;100.00;102730.47;5289195;28;20342;-79
2024/02/20 06:30:33;;;;;;;21.10;8.02;;;;;;;7.95;100.00;102730.31;5290411;28;20040;-77
2024/02/20 06:33:04;;;;;;;20.52;7.63;;;;;;;7.93;100.00;102726.94;5288894;28;20058;-76
2024/02/20 06:35:37;;;;;;;20.63;7.63;;;;;;;7.94;100.00;102725.19;5290001;28;20330;-78
2024/02/20 06:38:09;;;;;;;19.08;7.05;;;;;;;7.93;100.00;102721.72;5270776;28;20032;-76
2024/02/20 06:40:41;;;;;;;23.67;8.13;;;;;;;7.95;100.00;102726.88;5290104;28;20028;-76
2024/02/20 06:43:12;;;;;;;21.23;8.25;;;;;;;7.93;100.00;102724.34;5287177;28;20063;-76
2024/02/20 06:45:44;;;;;;;19.23;7.57;;;;;;;7.92;100.00;102730.47;5288750;28;20042;-77
2024/02/20 06:48:16;;;;;;;17.75;6.60;;;;;;;7.95;100.00;102725.09;5286885;28;20481;-77
2024/02/20 06:50:49;;;;;;;18.88;6.80;;;;;;;7.92;100.00;102735.69;5290651;28;20421;-77
2024/02/20 06:53:21;;;;;;;18.47;7.00;;;;;;;7.98;100.00;102738.03;5289867;28;20024;-77
2024/02/20 06:55:52;;;;;;;19.42;7.57;;;;;;;7.95;100.00;102738.16;5287814;28;20040;-76
2024/02/20 06:58:26;;;;;;;20.67;8.05;;;;;;;7.98;100.00;102743.25;5290102;28;20027;-77
2024/02/20 07:00:58;;;;;;;18.67;7.28;;;;;;;7.84;100.00;102729.97;5288424;28;20023;-77
2024/02/20 07:03:30;;;;;;;17.92;7.47;;;;;;;7.91;100.00;102749.63;5272005;28;20145;-77
2024/02/20 07:06:03;;;;;;;18.00;8.47;;;;;;;7.93;100.00;102753.03;5281981;28;20314;-78
2024/02/20 07:08:35;;;;;;;20.08;8.10;;;;;;;7.91;100.00;102752.25;5280845;28;20024;-78
2024/02/20 07:11:07;;;;;;;21.83;7.47;;;;;;;7.89;100.00;102758.47;5288547;28;20035;-76
2024/02/20 07:13:39;;;;;;;17.52;6.80;;;;;;;7.86;100.00;102743.78;5285023;28;20470;-77
2024/02/20 07:16:13;;;;;;;14.00;6.97;;;;;;;7.86;100.00;102749.00;5287181;28;20067;-76
2024/02/20 07:18:45;;;;;;;19.98;8.73;;;;;;;7.87;100.00;102745.47;5287606;28;20032;-76
2024/02/20 07:21:17;;;;;;;27.23;8.85;;;;;;;7.89;100.00;102738.44;5288541;28;20038;-78
2024/02/20 07:23:49;;;;;;;19.90;8.00;;;;;;;7.84;100.00;102737.78;5285214;28;20040;-77
2024/02/20 07:26:26;;;;;;;18.80;8.40;;;;;;;7.96;100.00;102739.88;5286873;28;20024;-77
2024/02/20 07:28:58;;;;;;;18.40;8.20;;;;;;;7.90;100.00;102745.34;5285897;28;20032;-76
2024/02/20 07:31:30;;;;;;;24.55;9.02;;;;;;;7.94;100.00;102746.06;5279062;28;20031;-77
2024/02/20 07:34:02;;;;;;;23.45;8.90;;;;;;;7.93;100.00;102747.81;5284756;28;20063;-77
2024/02/20 07:36:34;;;;;;;20.13;8.57;;;;;;;7.92;100.00;102751.34;5286296;28;20027;-76
2024/02/20 07:39:06;;;;;;;23.67;8.77;;;;;;;7.95;100.00;102740.75;5288074;28;20035;-76
2024/02/20 07:41:38;;;;;;;14.85;7.43;;;;;;;7.99;100.00;102747.56;5281699;28;20035;-76
2024/02/20 07:44:10;;;;;;;21.58;8.95;;;;;;;8.00;100.00;102743.19;5284334;28;20028;-78
2024/02/20 07:46:42;;;;;;;27.63;10.15;;;;;;;8.06;100.00;102742.91;5283700;28;20028;-76
2024/02/20 07:49:14;;;;;;;18.35;9.13;;;;;;;8.03;100.00;102741.28;5285522;28;20028;-76
2024/02/20 07:51:47;;;;;;;22.67;10.10;;;;;;;8.00;100.00;102730.13;5287224;28;20036;-79
2024/02/20 07:54:19;;;;;;;26.73;10.50;;;;;;;8.06;100.00;102740.28;5284134;28;20485;-76
2024/02/20 07:56:52;;;;;;;21.88;11.75;;;;;;;7.99;100.00;102744.97;5282767;28;20056;-78
2024/02/20 07:59:24;;;;;;;24.53;11.13;;;;;;;8.02;100.00;102742.19;5276502;28;20040;-75
2024/02/20 08:01:57;;;;;;;27.60;11.27;;;;;;;8.07;100.00;102739.41;5273647;28;20293;-76
2024/02/20 08:04:29;;;;;;;28.27;12.27;;;;;;;8.08;100.00;102735.88;5265444;28;20032;-79
2024/02/20 08:07:01;;;;;;;23.05;11.45;;;;;;;8.10;100.00;102735.78;5279492;28;20027;-76
2024/02/20 08:09:32;;;;;;;24.20;12.43;;;;;;;8.10;100.00;102735.78;5285670;28;20032;-76
2024/02/20 08:12:05;;;;;;;19.20;11.63;;;;;;;8.12;100.00;102732.19;5286172;28;20027;-76
2024/02/20 08:14:37;;;;;;;22.55;11.52;;;;;;;8.17;100.00;102739.81;5282473;28;20027;-76
2024/02/20 08:17:09;;;;;;;25.25;11.90;;;;;;;8.17;100.00;102726.78;5282717;28;20832;-76
2024/02/20 08:19:42;;;;;;;28.02;14.68;;;;;;;8.16;100.00;102731.16;5287111;28;20032;-76
2024/02/20 08:22:13;;;;;;;25.38;14.77;;;;;;;8.18;100.00;102731.94;5283551;28;20497;-77
2024/02/20 08:24:45;;;;;;;24.17;13.15;;;;;;;8.12;100.00;102707.88;5283953;28;20207;-79
2024/02/20 08:27:17;;;;;;;24.98;13.55;;;;;;;8.31;100.00;102729.63;5281151;28;20043;-76
2024/02/20 08:29:49;;;;;;;30.33;15.30;;;;;;;8.38;100.00;102735.47;5284233;28;20618;-76
2024/02/20 08:32:21;;;;;;;22.80;13.10;;;;;;;8.32;100.00;102727.84;5286697;28;20023;-79
2024/02/20 08:34:53;;;;;;;27.92;13.93;;;;;;;8.40;100.00;102738.81;5281055;28;20047;-76
2024/02/20 08:37:25;;;;;;;23.75;13.20;;;;;;;8.44;100.00;102735.16;5288065;28;20587;-77
2024/02/20 08:39:57;;;;;;;26.63;15.25;;;;;;;8.51;100.00;102742.63;5285480;28;20720;-76
2024/02/20 08:42:28;;;;;;;26.48;13.38;;;;;;;8.49;100.00;102749.72;5285272;28;20062;-76
2024/02/20 08:45:03;;;;;;;25.27;13.52;;;;;;;8.56;100.00;102754.66;5265191;28;20048;-76
2024/02/20 08:47:35;;;;;;;24.67;13.70;;;;;;;8.60;100.00;102750.97;5286842;28;20489;-76
2024/02/20 08:50:08;;;;;;;23.33;13.77;;;;;;;8.60;100.00;102758.81;5283359;28;20140;-77
2024/02/20 08:52:39;;;;;;;28.25;14.13;;;;;;;8.64;100.00;102757.78;5267784;28;20040;-77
2024/02/20 08:55:13;;;;;;;25.13;12.98;;;;;;;8.68;100.00;102754.94;5285547;28;20024;-78
2024/02/20 08:57:45;;;;;;;28.02;13.43;;;;;;;8.72;100.00;102760.88;5273323;28;20044;-76
2024/02/20 09:00:18;;;;;;;23.70;12.50;;;;;;;8.72;100.00;102760.88;5283643;28;20044;-76
2024/02/20 09:02:50;;;;;;;27.67;12.75;;;;;;;8.75;100.00;102758.09;5281350;28;20032;-76
2024/02/20 09:05:23;;;;;;;23.08;12.75;;;;;;;8.81;100.00;102765.66;5283405;28;20111;-76
2024/02/20 09:07:56;;;;;;;20.52;12.00;;;;;;;8.88;100.00;102766.22;5282726;28;20036;-76
2024/02/20 09:10:28;;;;;;;26.95;12.77;;;;;;;8.90;100.00;102769.59;5281424;28;20036;-78
2024/02/20 09:13:00;;;;;;;27.45;13.00;;;;;;;8.87;100.00;102765.41;5283417;28;20042;-78
2024/02/20 09:15:34;;;;;;;24.05;12.63;;;;;;;8.91;100.00;102760.88;5281597;28;20299;-77
2024/02/20 09:18:05;;;;;;;24.00;12.20;;;;;;;8.90;100.00;102764.38;5279646;28;20035;-79
2024/02/20 09:20:37;;;;;;;24.65;12.73;;;;;;;8.96;100.00;102764.94;5283637;28;20039;-76
2024/02/20 09:23:09;;;;;;;25.52;12.93;;;;;;;9.04;100.00;102771.59;5282824;28;20031;-76
2024/02/20 09:25:43;;;;;;;24.30;11.85;;;;;;;9.08;100.00;102768.75;5286518;28;20032;-76
2024/02/20 09:28:15;;;;;;;27.67;12.25;;;;;;;9.15;100.00;102764.91;5286924;28;20038;-76
2024/02/20 09:30:47;;;;;;;27.30;12.70;;;;;;;9.16;100.00;102760.53;5289572;28;20035;-77
2024/02/20 09:33:19;;;;;;;26.33;12.13;;;;;;;9.28;100.00;102762.56;5288140;28;20036;-78
2024/02/20 09:35:51;;;;;;;27.45;12.35;;;;;;;9.33;100.00;102768.41;5286763;28;20036;-79
2024/02/20 09:38:23;;;;;;;26.25;11.90;;;;;;;9.34;100.00;102767.50;5283779;28;20466;-76
2024/02/20 09:40:55;;;;;;;24.58;12.10;;;;;;;9.39;100.00;102768.09;5282688;28;20032;-79
2024/02/20 09:43:27;;;;;;;25.58;11.15;;;;;;;9.46;100.00;102764.25;5282078;28;20466;-76
2024/02/20 09:46:15;;;;;;;28.88;11.60;;;;;;;9.67;100.00;102758.91;5288970;28;20027;-76
2024/02/20 09:48:49;;;;;;;27.85;11.43;;;;;;;9.55;100.00;102757.75;5283418;28;20234;-77
2024/02/20 09:51:26;;;;;;;26.77;12.43;;;;;;;9.58;100.00;102757.56;5288530;28;20492;-79
2024/02/20 09:54:00;;;;;;;25.05;11.10;;;;;;;9.63;100.00;102755.59;5287685;28;20039;-76
2024/02/20 09:56:35;;;;;;;26.50;10.10;;;;;;;9.56;100.00;102743.72;5288440;28;20049;-76
2024/02/20 09:59:07;;;;;;;29.40;11.02;;;;;;;9.70;100.00;102756.97;5281782;28;20052;-76
2024/02/20 10:01:40;;;;;;;26.58;10.55;;;;;;;9.75;100.00;102760.19;5288985;28;20031;-76
2024/02/20 10:04:12;;;;;;;22.10;11.23;;;;;;;9.83;100.00;102757.19;5285837;28;20035;-76
2024/02/20 10:06:44;;;;;;;20.47;10.20;;;;;;;9.90;100.00;102758.56;5284016;28;20488;-79
2024/02/20 10:09:16;;;;;;;23.42;9.57;;;;;;;9.91;100.00;102754.19;5287890;28;20032;-76
2024/02/20 10:11:48;;;;;;;21.10;9.43;;;;;;;9.91;100.00;102755.03;5288120;28;20151;-79
2024/02/20 10:14:27;;;;;;;20.73;10.52;;;;;;;10.11;100.00;102746.13;5288017;28;20030;-76
2024/02/20 10:17:03;;;;;;;19.40;8.63;;;;;;;10.00;100.00;102740.63;5285365;28;20040;-77
2024/02/20 10:19:35;;;;;;;27.08;9.60;;;;;;;9.99;100.00;102737.13;5286407;28;20417;-76
2024/02/20 10:22:06;;;;;;;23.58;10.68;;;;;;;10.07;100.00;102736.75;5286405;28;20040;-76
2024/02/20 10:24:38;;;;;;;20.15;9.10;;;;;;;10.14;100.00;102735.50;5287928;28;20039;-78
2024/02/20 10:27:10;;;;;;;19.52;8.80;;;;;;;10.12;100.00;102731.28;5286384;28;20510;-79
2024/02/20 10:29:42;;;;;;;23.08;10.35;;;;;;;10.27;100.00;102734.91;5285506;28;20036;-76
2024/02/20 10:32:14;;;;;;;19.58;8.13;;;;;;;10.30;100.00;102729.47;5288501;28;20507;-76
2024/02/20 10:34:47;;;;;;;20.80;7.95;;;;;;;10.29;100.00;102727.78;5286755;28;20097;-78
2024/02/20 10:37:19;;;;;;;20.98;10.00;;;;;;;10.31;100.00;102729.41;5286967;28;20028;-77
2024/02/20 10:40:11;;;;;;;19.73;8.05;;;;;;;10.52;100.00;102729.16;5286358;28;20027;-77
2024/02/20 10:42:44;;;;;;;17.85;8.20;;;;;;;10.40;100.00;102725.44;5284297;28;20499;-75
2024/02/20 10:45:16;;;;;;;21.33;7.72;;;;;;;10.46;100.00;102727.75;5275107;28;20051;-78
2024/02/20 10:47:51;;;;;;;15.18;7.25;;;;;;;10.61;100.00;102729.53;5284106;28;20035;-77
2024/02/20 10:50:23;;;;;;;21.92;8.55;;;;;;;10.56;100.00;102720.19;5287572;28;20032;-79
2024/02/20 10:52:59;;;;;;;18.85;7.57;;;;;;;10.51;100.00;102712.59;5279460;28;20032;-76
2024/02/20 10:55:32;;;;;;;17.92;7.63;;;;;;;10.61;100.00;102718.19;5283096;28;20042;-77
2024/02/20 10:58:08;;;;;;;18.67;6.65;;;;;;;10.71;100.00;102714.97;5282282;28;20032;-77
2024/02/20 11:00:40;;;;;;;22.02;7.53;;;;;;;10.66;100.00;102709.13;5285478;28;20043;-77
2024/02/20 11:03:13;;;;;;;19.95;7.78;;;;;;;10.73;100.00;102704.41;5284607;28;20031;-77
2024/02/20 11:05:45;;;;;;;18.40;7.90;;;;;;;10.71;100.00;102701.84;5282298;28;20024;-77
2024/02/20 11:08:24;;;;;;;22.35;8.15;;;;;;;10.97;100.00;102699.53;5282526;28;20389;-77
2024/02/20 11:11:12;;;;;;;19.23;8.13;;;;;;;11.15;100.00;102695.03;5285067;28;20039;-77
2024/02/20 11:13:44;;;;;;;22.27;7.70;;;;;;;10.96;100.00;102697.88;5265204;28;20042;-77
2024/02/20 11:16:16;;;;;;;19.25;7.70;;;;;;;11.03;100.00;102701.00;5282965;28;20032;-77
2024/02/20 11:18:52;;;;;;;19.80;7.78;;;;;;;11.11;100.00;102688.28;5284011;28;20027;-77
2024/02/20 11:21:29;;;;;;;19.77;7.80;;;;;;;11.28;100.00;102687.28;5286931;28;20287;-77
2024/02/20 11:24:11;;;;;;;22.67;7.80;;;;;;;11.50;100.00;102676.38;5283576;28;20039;-77
2024/02/20 11:26:50;;;;;;;18.40;7.88;;;;;;;11.55;100.00;102683.03;5285347;28;20512;-77
2024/02/20 11:29:26;;;;;;;18.20;7.85;;;;;;;11.63;100.00;102666.81;5280243;28;20036;-77
2024/02/20 11:32:11;;;;;;;23.05;8.18;;;;;;;11.75;100.00;102660.00;5264012;28;20051;-77
2024/02/20 11:34:43;;;;;;;24.25;8.80;;;;;;;11.76;100.00;102672.19;5282749;28;20484;-77
2024/02/20 11:37:15;;;;;;;20.30;7.65;;;;;;;11.74;100.00;102667.00;5278819;28;20074;-77
2024/02/20 11:39:47;;;;;;;28.50;8.35;;;;;;;11.80;100.00;102671.91;5278317;28;20031;-77